createdAt,value
2022-08-04T00:01:33.261Z,2.50
2022-08-04T00:04:11.423Z,2.37
2022-08-04T00:07:42.698Z,2.33
2022-08-04T00:10:16.605Z,2.30
2022-08-04T00:12:51.277Z,2.27
2022-08-04T00:15:19.813Z,2.30
2022-08-04T00:18:00.927Z,2.30
2022-08-04T00:20:34.107Z,2.67
2022-08-04T00:23:06.126Z,2.30
2022-08-04T00:25:33.873Z,2.47
2022-08-04T00:28:04.930Z,2.73
2022-08-04T00:30:32.869Z,2.73
2022-08-04T00:33:01.751Z,2.17
2022-08-04T00:36:50.421Z,2.50
2022-08-04T00:39:55.396Z,2.30
2022-08-04T00:42:58.179Z,2.53
2022-08-04T00:45:35.755Z,2.20
2022-08-04T00:49:02.020Z,2.50
2022-08-04T00:51:47.489Z,2.40
2022-08-04T00:55:11.269Z,2.70
2022-08-04T00:58:18.483Z,2.20
2022-08-04T01:01:06.786Z,2.40
2022-08-04T01:04:01.476Z,2.20
2022-08-04T01:06:56.414Z,2.70
2022-08-04T01:09:51.666Z,2.70
2022-08-04T01:13:01.677Z,2.47
2022-08-04T01:16:02.383Z,2.20
2022-08-04T01:19:01.767Z,2.27
2022-08-04T01:21:40.588Z,2.30
2022-08-04T01:24:46.353Z,2.50
2022-08-04T01:27:34.319Z,2.67
2022-08-04T01:30:05.631Z,2.83
2022-08-04T01:32:59.312Z,2.60
2022-08-04T01:35:49.400Z,3.20
2022-08-04T01:38:48.834Z,2.60
2022-08-04T01:41:19.681Z,3.03
2022-08-04T01:44:03.155Z,2.43
2022-08-04T01:46:36.460Z,2.80
2022-08-04T01:49:04.076Z,3.00
2022-08-04T01:51:36.111Z,3.47
2022-08-04T01:54:03.267Z,3.60
2022-08-04T01:56:31.606Z,3.63
2022-08-04T01:59:03.122Z,3.90
2022-08-04T02:01:37.222Z,4.17
2022-08-04T02:04:18.670Z,4.10
2022-08-04T02:07:05.618Z,3.97
2022-08-04T02:10:05.027Z,3.47
2022-08-04T02:13:13.542Z,4.90
2022-08-04T02:16:05.363Z,4.07
2022-08-04T02:18:45.299Z,4.17
2022-08-04T02:21:20.130Z,4.63
2022-08-04T02:23:54.122Z,4.47
2022-08-04T02:26:25.240Z,4.77
2022-08-04T02:29:17.236Z,4.30
2022-08-04T02:32:07.649Z,4.23
2022-08-04T02:35:25.401Z,4.37
2022-08-04T02:38:11.684Z,4.00
2022-08-04T02:40:41.943Z,3.70
2022-08-04T02:43:10.887Z,4.17
2022-08-04T02:45:42.717Z,3.50
2022-08-04T02:48:31.216Z,3.50
2022-08-04T02:51:01.240Z,3.93
2022-08-04T02:53:33.097Z,3.50
2022-08-04T02:56:02.660Z,3.10
2022-08-04T02:58:35.546Z,3.10
2022-08-04T03:01:04.439Z,3.50
2022-08-04T03:04:11.491Z,3.53
2022-08-04T03:07:20.142Z,3.43
2022-08-04T03:10:21.574Z,3.50
2022-08-04T03:13:39.965Z,3.40
2022-08-04T03:16:24.950Z,3.50
2022-08-04T03:19:12.836Z,3.30
2022-08-04T03:22:23.571Z,2.70
2022-08-04T03:25:22.483Z,3.03
2022-08-04T03:28:24.686Z,3.13
2022-08-04T03:31:31.846Z,3.47
2022-08-04T03:34:16.909Z,3.43
2022-08-04T03:37:17.202Z,3.30
2022-08-04T03:40:28.643Z,3.10
2022-08-04T03:43:57.851Z,2.97
2022-08-04T03:46:45.080Z,3.40
2022-08-04T03:49:33.330Z,3.60
2022-08-04T03:53:01.027Z,3.43
2022-08-04T03:55:56.224Z,3.17
2022-08-04T03:58:49.099Z,2.90
2022-08-04T04:02:06.408Z,3.60
2022-08-04T04:04:58.067Z,2.90
2022-08-04T04:07:41.692Z,3.07
2022-08-04T04:10:39.132Z,3.20
2022-08-04T04:13:41.213Z,3.27
2022-08-04T04:16:32.777Z,3.40
2022-08-04T04:19:05.571Z,2.97
2022-08-04T04:22:10.842Z,2.70
2022-08-04T04:25:07.757Z,2.70
2022-08-04T04:27:47.288Z,2.40
2022-08-04T04:30:44.917Z,2.67
2022-08-04T04:33:47.757Z,2.60
2022-08-04T04:36:46.745Z,2.50
2022-08-04T04:39:31.440Z,2.60
2022-08-04T04:42:25.653Z,2.20
2022-08-04T04:44:58.278Z,2.43
2022-08-04T04:48:07.437Z,2.40
2022-08-04T04:50:45.295Z,2.07
2022-08-04T04:54:02.580Z,2.30
2022-08-04T04:57:10.128Z,2.00
2022-08-04T05:00:02.076Z,2.10
2022-08-04T05:03:00.654Z,1.97
2022-08-04T05:06:14.376Z,2.20
2022-08-04T05:09:18.344Z,2.33
2022-08-04T05:14:38.057Z,2.30
2022-08-04T05:15:32.093Z,2.27
2022-08-04T05:18:03.115Z,2.10
2022-08-04T05:20:45.937Z,2.17
2022-08-04T05:23:26.941Z,1.90
2022-08-04T05:26:09.882Z,1.90
2022-08-04T05:28:56.316Z,2.20
2022-08-04T05:31:41.290Z,2.30
2022-08-04T05:34:15.997Z,2.97
2022-08-04T05:36:56.080Z,2.30
2022-08-04T05:39:33.780Z,2.63
2022-08-04T05:42:05.074Z,2.57
2022-08-04T05:44:37.783Z,2.40
2022-08-04T05:47:07.148Z,2.13
2022-08-04T05:49:35.775Z,2.27
2022-08-04T05:52:05.644Z,2.33
2022-08-04T05:54:38.999Z,2.33
2022-08-04T05:57:09.291Z,2.40
2022-08-04T05:59:43.084Z,2.30
2022-08-04T06:02:21.247Z,2.43
2022-08-04T06:04:52.450Z,3.20
2022-08-04T06:07:20.838Z,2.73
2022-08-04T06:09:51.435Z,2.70
2022-08-04T06:12:27.352Z,2.50
2022-08-04T06:14:59.540Z,2.80
2022-08-04T06:18:32.864Z,2.83
2022-08-04T06:20:31.082Z,2.70
2022-08-04T06:23:08.987Z,2.50
2022-08-04T06:25:46.025Z,2.87
2022-08-04T06:28:18.720Z,2.63
2022-08-04T06:30:50.266Z,2.43
2022-08-04T06:33:54.308Z,2.43
2022-08-04T06:36:21.618Z,2.67
2022-08-04T06:38:58.434Z,2.70
2022-08-04T06:41:29.688Z,2.10
2022-08-04T06:44:05.485Z,2.43
2022-08-04T06:46:38.128Z,2.30
2022-08-04T06:49:07.261Z,2.67
2022-08-04T06:51:45.229Z,2.47
2022-08-04T06:54:17.412Z,2.67
2022-08-04T06:56:46.470Z,2.53
2022-08-04T06:59:18.920Z,2.57
2022-08-04T07:01:49.294Z,2.80
2022-08-04T07:04:17.960Z,2.30
2022-08-04T07:06:45.555Z,2.90
2022-08-04T07:09:13.285Z,2.47
2022-08-04T07:11:44.244Z,2.70
2022-08-04T07:14:12.847Z,2.43
2022-08-04T07:16:45.824Z,2.67
2022-08-04T07:19:18.531Z,2.17
2022-08-04T07:22:16.824Z,2.90
2022-08-04T07:24:38.374Z,2.77
2022-08-04T07:27:08.957Z,2.70
2022-08-04T07:29:37.543Z,2.57
2022-08-04T07:32:11.486Z,2.40
2022-08-04T07:34:40.080Z,2.50
2022-08-04T07:37:10.178Z,2.40
2022-08-04T07:39:47.886Z,2.37
2022-08-04T07:42:20.648Z,2.77
2022-08-04T07:44:48.994Z,2.57
2022-08-04T07:47:16.868Z,2.30
2022-08-04T07:49:54.966Z,2.43
2022-08-04T07:52:27.194Z,2.83
2022-08-04T07:54:55.043Z,2.73
2022-08-04T07:57:40.022Z,2.30
2022-08-04T08:00:15.185Z,2.53
2022-08-04T08:02:51.636Z,2.63
2022-08-04T08:05:20.809Z,2.55
2022-08-04T08:07:54.284Z,2.58
2022-08-04T08:10:24.976Z,2.70
2022-08-04T08:12:53.925Z,2.85
2022-08-04T08:15:23.066Z,2.63
2022-08-04T08:17:58.560Z,2.47
2022-08-04T08:20:34.101Z,2.80
2022-08-04T08:23:03.572Z,2.50
2022-08-04T08:25:34.487Z,2.50
2022-08-04T08:28:07.424Z,2.38
2022-08-04T08:30:35.283Z,2.50
2022-08-04T08:33:07.518Z,2.40
2022-08-04T08:36:04.012Z,2.60
2022-08-04T08:38:46.203Z,2.80
2022-08-04T08:41:34.349Z,2.70
2022-08-04T08:44:56.052Z,2.20
2022-08-04T08:47:58.465Z,2.78
2022-08-04T08:51:27.319Z,2.42
2022-08-04T08:54:23.361Z,2.60
2022-08-04T08:57:43.895Z,2.45
2022-08-04T09:00:43.242Z,2.50
2022-08-04T09:03:48.028Z,2.42
2022-08-04T09:06:37.400Z,2.15
2022-08-04T09:09:47.825Z,2.42
2022-08-04T09:12:36.188Z,2.20
2022-08-04T09:15:23.857Z,2.28
2022-08-04T09:18:02.861Z,2.45
2022-08-04T09:21:10.150Z,2.50
2022-08-04T09:24:00.843Z,2.70
2022-08-04T09:27:01.083Z,2.30
2022-08-04T09:29:41.173Z,2.65
2022-08-04T09:32:50.235Z,2.40
2022-08-04T09:35:42.258Z,2.70
2022-08-04T09:38:42.308Z,2.58
2022-08-04T09:41:49.706Z,2.78
2022-08-04T09:45:00.078Z,2.35
2022-08-04T09:47:45.899Z,2.55
2022-08-04T09:50:39.184Z,2.38
2022-08-04T09:53:45.990Z,2.33
2022-08-04T09:56:33.578Z,2.20
2022-08-04T09:59:24.577Z,2.55
2022-08-04T10:01:59.959Z,2.42
2022-08-04T10:04:32.211Z,2.40
2022-08-04T10:07:42.647Z,2.15
2022-08-04T10:10:47.500Z,2.00
2022-08-04T10:13:55.566Z,2.30
2022-08-04T10:16:56.050Z,1.98
2022-08-04T10:19:36.966Z,1.98
2022-08-04T10:22:28.078Z,2.17
2022-08-04T10:26:03.225Z,2.30
2022-08-04T10:28:21.857Z,1.98
2022-08-04T10:31:10.079Z,2.42
2022-08-04T10:33:58.567Z,2.75
2022-08-04T10:36:39.683Z,2.42
2022-08-04T10:39:41.690Z,2.58
2022-08-04T10:42:29.965Z,2.10
2022-08-04T10:45:35.149Z,2.30
2022-08-04T10:48:47.873Z,2.70
2022-08-04T10:51:58.083Z,2.90
2022-08-04T10:56:07.141Z,2.67
2022-08-04T10:58:47.699Z,2.60
2022-08-04T11:02:00.164Z,3.27
2022-08-04T11:05:05.123Z,3.23
2022-08-04T11:07:37.059Z,4.07
2022-08-04T11:10:06.435Z,3.80
2022-08-04T11:12:35.838Z,3.63
2022-08-04T11:15:13.657Z,3.97
2022-08-04T11:17:53.430Z,4.10
2022-08-04T11:20:47.981Z,4.03
2022-08-04T11:23:18.117Z,3.40
2022-08-04T11:26:21.691Z,3.50
2022-08-04T11:29:21.000Z,3.80
2022-08-04T11:31:52.145Z,4.00
2022-08-04T11:34:25.888Z,4.00
2022-08-04T11:37:27.757Z,4.23
2022-08-04T11:40:27.959Z,3.53
2022-08-04T11:43:06.632Z,3.73
2022-08-04T11:45:56.741Z,3.67
2022-08-04T11:48:32.948Z,3.77
2022-08-04T11:51:06.703Z,3.13
2022-08-04T11:53:39.125Z,3.50
2022-08-04T11:56:13.596Z,3.47
2022-08-04T11:59:02.739Z,3.50
2022-08-04T12:02:09.790Z,3.53
2022-08-04T12:04:55.973Z,2.87
2022-08-04T12:08:13.226Z,3.30
2022-08-04T12:10:57.922Z,2.60
2022-08-04T12:13:32.390Z,3.37
2022-08-04T12:16:30.156Z,3.23
2022-08-04T12:19:15.782Z,3.13
2022-08-04T12:21:57.686Z,3.13
2022-08-04T12:24:36.670Z,2.50
2022-08-04T12:27:25.962Z,3.00
2022-08-04T12:31:00.157Z,2.90
2022-08-04T12:33:11.854Z,2.50
2022-08-04T12:36:21.012Z,2.77
2022-08-04T12:39:01.850Z,2.77
2022-08-04T12:41:39.833Z,2.17
2022-08-04T12:44:33.325Z,2.60
2022-08-04T12:47:27.776Z,2.90
2022-08-04T12:50:00.992Z,2.30
2022-08-04T12:55:34.899Z,2.75
2022-08-04T12:58:16.195Z,3.38
2022-08-04T13:02:07.488Z,2.38
2022-08-04T13:04:29.072Z,2.40
2022-08-04T13:07:19.449Z,2.60
2022-08-04T13:09:47.800Z,2.05
2022-08-04T13:12:24.885Z,2.42
2022-08-04T13:15:23.222Z,2.60
2022-08-04T13:18:14.868Z,2.80
2022-08-04T13:20:44.583Z,2.40
2022-08-04T13:23:21.793Z,2.80
2022-08-04T13:26:43.212Z,2.60
2022-08-04T13:28:48.461Z,2.40
2022-08-04T13:31:21.092Z,2.70
2022-08-04T13:33:55.390Z,1.98
2022-08-04T13:36:27.649Z,2.58
2022-08-04T13:39:03.351Z,2.65
2022-08-04T13:41:32.066Z,2.80
2022-08-04T13:44:17.631Z,2.70
2022-08-04T13:46:53.471Z,2.80
2022-08-04T13:49:42.942Z,2.80
2022-08-04T13:52:11.214Z,2.90
2022-08-04T13:54:48.685Z,3.35
2022-08-04T13:57:32.182Z,2.97
2022-08-04T14:00:09.374Z,2.85
2022-08-04T14:02:59.050Z,3.33
2022-08-04T14:05:35.355Z,3.85
2022-08-04T14:08:29.153Z,4.33
2022-08-04T14:10:59.886Z,4.60
2022-08-04T14:13:41.270Z,4.53
2022-08-04T14:16:21.490Z,3.40
2022-08-04T14:18:58.865Z,4.50
2022-08-04T14:21:26.402Z,5.57
2022-08-04T14:23:57.427Z,5.37
2022-08-04T14:26:31.580Z,5.80
2022-08-04T14:29:26.456Z,6.10
2022-08-04T14:32:04.454Z,4.97
2022-08-04T14:34:42.654Z,4.20
2022-08-04T14:37:20.520Z,5.40
2022-08-04T14:40:18.908Z,4.87
2022-08-04T14:42:54.272Z,3.73
2022-08-04T14:45:39.718Z,4.60
2022-08-04T14:48:23.318Z,4.23
2022-08-04T14:50:51.988Z,4.30
2022-08-04T14:53:31.735Z,3.90
2022-08-04T14:56:01.250Z,4.90
2022-08-04T14:58:38.421Z,4.17
2022-08-04T15:01:12.115Z,4.63
2022-08-04T15:03:50.796Z,4.10
2022-08-04T15:06:29.785Z,3.80
2022-08-04T15:09:04.453Z,3.93
2022-08-04T15:11:31.918Z,4.30
2022-08-04T15:13:59.942Z,4.07
2022-08-04T15:16:33.035Z,3.73
2022-08-04T15:19:02.028Z,3.77
2022-08-04T15:21:30.011Z,3.50
2022-08-04T15:24:00.851Z,3.17
2022-08-04T15:26:53.400Z,3.50
2022-08-04T15:30:00.555Z,3.13
2022-08-04T15:32:37.435Z,3.33
2022-08-04T15:35:20.960Z,3.00
2022-08-04T15:38:10.215Z,3.13
2022-08-04T15:40:57.238Z,3.00
2022-08-04T15:44:17.948Z,3.40
2022-08-04T15:46:49.831Z,3.37
2022-08-04T15:49:23.226Z,3.90
2022-08-04T15:52:18.527Z,3.17
2022-08-04T15:54:52.449Z,3.33
2022-08-04T15:58:00.834Z,3.97
2022-08-04T16:00:55.395Z,4.77
2022-08-04T16:03:57.811Z,4.30
2022-08-04T16:06:22.649Z,3.80
2022-08-04T16:09:45.340Z,4.10
2022-08-04T16:12:56.525Z,4.30
2022-08-04T16:15:50.769Z,3.73
2022-08-04T16:18:38.153Z,3.70
2022-08-04T16:21:18.230Z,3.57
2022-08-04T16:24:02.318Z,3.30
2022-08-04T16:26:56.858Z,3.27
2022-08-04T16:29:30.640Z,3.27
2022-08-04T16:32:13.578Z,3.00
2022-08-04T16:35:05.136Z,3.17
2022-08-04T16:37:38.831Z,2.80
2022-08-04T16:40:35.687Z,2.63
2022-08-04T16:43:15.845Z,2.50
2022-08-04T16:45:50.766Z,2.60
2022-08-04T16:48:38.738Z,2.33
2022-08-04T16:51:15.218Z,2.60
2022-08-04T16:53:53.899Z,3.17
2022-08-04T16:56:35.581Z,2.77
2022-08-04T16:59:09.744Z,3.00
2022-08-04T17:01:45.026Z,3.40
2022-08-04T17:04:13.063Z,3.67
2022-08-04T17:06:43.484Z,3.20
2022-08-04T17:09:19.806Z,3.27
2022-08-04T17:11:48.669Z,3.23
2022-08-04T17:14:27.164Z,3.30
2022-08-04T17:17:00.074Z,3.20
2022-08-04T17:19:27.776Z,3.47
2022-08-04T17:22:06.067Z,3.10
2022-08-04T17:24:38.387Z,3.33
2022-08-04T17:28:09.209Z,3.20
2022-08-04T17:29:56.881Z,3.33
2022-08-04T17:32:25.154Z,3.13
2022-08-04T17:34:57.709Z,3.47
2022-08-04T17:37:52.582Z,3.00
2022-08-04T17:40:22.548Z,3.60
2022-08-04T17:44:03.544Z,3.73
2022-08-04T17:46:30.295Z,3.70
2022-08-04T17:49:18.535Z,3.40
2022-08-04T17:55:02.783Z,3.80
2022-08-04T17:57:30.675Z,3.03
2022-08-04T18:00:00.467Z,3.33
2022-08-04T18:02:33.880Z,3.27
2022-08-04T18:05:11.851Z,3.50
2022-08-04T18:08:35.605Z,3.33
2022-08-04T18:10:57.449Z,3.50
2022-08-04T18:13:29.084Z,3.20
2022-08-04T18:16:14.591Z,3.50
2022-08-04T18:19:14.999Z,3.23
2022-08-04T18:25:53.073Z,2.60
2022-08-04T18:28:27.029Z,2.80
2022-08-04T18:30:56.106Z,2.57
2022-08-04T18:33:40.644Z,2.80
2022-08-04T18:36:34.731Z,2.20
2022-08-04T18:39:13.550Z,2.73
2022-08-04T18:42:01.870Z,2.70
2022-08-04T18:44:51.801Z,2.73
2022-08-04T18:47:23.930Z,2.63
2022-08-04T18:51:01.238Z,2.57
2022-08-04T18:53:05.585Z,2.50
2022-08-04T18:55:56.772Z,2.50
2022-08-04T18:58:27.971Z,2.80
2022-08-04T19:01:04.584Z,2.90
2022-08-04T19:04:04.243Z,3.40
2022-08-04T19:07:29.185Z,2.53
2022-08-04T19:09:58.044Z,2.83
2022-08-04T19:12:28.151Z,2.50
2022-08-04T19:15:10.858Z,2.50
2022-08-04T19:17:55.215Z,2.47
2022-08-04T19:20:31.415Z,2.50
2022-08-04T19:26:09.994Z,2.73
2022-08-04T19:28:47.363Z,2.57
2022-08-04T19:31:17.019Z,2.60
2022-08-04T19:33:58.794Z,2.30
2022-08-04T19:36:33.663Z,2.40
2022-08-04T19:39:09.302Z,2.33
2022-08-04T19:42:04.391Z,2.27
2022-08-04T19:44:30.184Z,2.40
2022-08-04T19:47:00.772Z,2.50
2022-08-04T19:50:03.687Z,2.10
2022-08-04T19:52:33.672Z,2.43
2022-08-04T19:55:10.123Z,2.50
2022-08-04T19:57:46.321Z,2.47
2022-08-04T20:00:34.152Z,2.47
2022-08-04T20:03:11.400Z,2.20
2022-08-04T20:06:38.400Z,2.10
2022-08-04T20:09:25.773Z,2.50
2022-08-04T20:11:53.017Z,2.03
2022-08-04T20:14:31.650Z,2.50
2022-08-04T20:17:02.312Z,2.40
2022-08-04T20:19:30.355Z,2.33
2022-08-04T20:21:58.699Z,2.30
2022-08-04T20:24:39.287Z,2.00
2022-08-04T20:27:15.145Z,2.07
2022-08-04T20:29:49.858Z,2.10
2022-08-04T20:32:22.148Z,2.57
2022-08-04T20:34:52.070Z,2.30
2022-08-04T20:37:24.939Z,2.20
2022-08-04T20:39:57.382Z,2.30
2022-08-04T20:42:27.860Z,2.47
2022-08-04T20:45:16.297Z,2.50
2022-08-04T20:47:53.364Z,2.50
2022-08-04T20:50:30.007Z,2.30
2022-08-04T20:52:58.554Z,1.97
2022-08-04T20:55:29.655Z,2.20
2022-08-04T20:58:02.488Z,2.10
2022-08-04T21:01:30.342Z,2.40
2022-08-04T21:07:10.020Z,2.27
2022-08-04T21:09:50.033Z,2.00
2022-08-04T21:12:27.208Z,2.00
2022-08-04T21:15:17.134Z,2.20
2022-08-04T21:17:58.590Z,2.10
2022-08-04T21:20:32.302Z,2.33
2022-08-04T21:23:02.068Z,2.50
2022-08-04T21:25:31.238Z,2.60
2022-08-04T21:28:04.074Z,2.53
2022-08-04T21:30:32.821Z,2.50
2022-08-04T21:33:07.551Z,2.73
2022-08-04T21:35:39.797Z,2.73
2022-08-04T21:38:16.292Z,3.03
2022-08-04T21:40:53.422Z,3.33
2022-08-04T21:46:09.734Z,3.20
2022-08-04T21:48:39.805Z,3.60
2022-08-04T21:51:59.056Z,3.33
2022-08-04T21:54:27.196Z,3.40
2022-08-04T21:56:54.340Z,3.70
2022-08-04T21:59:24.319Z,3.60
2022-08-04T22:02:00.196Z,3.50
2022-08-04T22:04:28.739Z,3.40
2022-08-04T22:06:55.855Z,3.40
2022-08-04T22:09:23.115Z,4.13
2022-08-04T22:11:51.982Z,3.77
2022-08-04T22:14:59.497Z,3.80
2022-08-04T22:17:35.222Z,4.00
2022-08-04T22:21:23.770Z,3.97
2022-08-04T22:23:51.759Z,3.93
2022-08-04T22:26:26.646Z,3.80
2022-08-04T22:28:57.152Z,4.10
2022-08-04T22:31:26.093Z,3.80
2022-08-04T22:34:13.420Z,3.80
2022-08-04T22:37:48.699Z,3.90
2022-08-04T22:40:44.125Z,3.93
2022-08-04T22:43:32.381Z,4.00
2022-08-04T22:46:06.492Z,4.87
2022-08-04T22:48:43.419Z,4.00
2022-08-04T22:51:12.921Z,5.37
2022-08-04T22:53:40.827Z,4.87
2022-08-04T22:56:10.696Z,4.87
2022-08-04T22:58:45.510Z,5.27
2022-08-04T23:01:19.664Z,4.30
2022-08-04T23:03:50.988Z,4.30
2022-08-04T23:06:25.593Z,4.00
2022-08-04T23:08:57.607Z,4.30
2022-08-04T23:11:24.789Z,4.10
2022-08-04T23:14:02.809Z,4.20
2022-08-04T23:16:30.421Z,4.10
2022-08-04T23:18:57.482Z,4.10
2022-08-04T23:21:24.976Z,4.33
2022-08-04T23:24:00.848Z,4.10
2022-08-04T23:26:31.747Z,4.30
2022-08-04T23:28:59.562Z,4.80
2022-08-04T23:31:48.258Z,4.90
2022-08-04T23:34:18.797Z,4.73
2022-08-04T23:36:47.413Z,4.77
2022-08-04T23:39:14.813Z,5.30
2022-08-04T23:42:21.267Z,4.73
2022-08-04T23:48:54.966Z,4.00
2022-08-04T23:51:26.866Z,4.30
2022-08-04T23:54:03.691Z,4.10
2022-08-04T23:56:34.345Z,3.87
2022-08-04T23:59:03.850Z,4.03
